x

Middle Nomad (46004) Wave Buoy

7:00am - Fri 12th Feb 2016 All times are PST. -8 hours from GMT.

  • Sig Wave height 13.4ft
  • Peak Period 11s
  • Wind
    20mph, 25mph gusts
  • Sea Temp 46°f
  • Air Temp 46°f
  • Sea Pressure 1002.5mb
  • Middle Nomad
  • Middle Nomad

More Historic Weather Station data

Upgrade to MSW Pro to gain access to the past 30 days of data for over 8000 Wavebouys and Weather Stations around the globe.

Join Pro

Comparision Forecast

View Surf forecast
   
Fri 02/12 7:00am 13.5ft 11s 20 25 mph 1002.5mb 46f 46f
6:00am 15ft 11s 18 22 mph 1002.5mb 46f 45f
5:00am 15ft 14s 22 27 mph 1002.3mb 46f 45f
4:00am 14ft 8s 20 25 mph 1002.1mb 46f 47f
3:00am 15ft 14s 18 22 mph 1002mb 46f 47f
2:00am 15.5ft 16s 18 22 mph 1002mb 46f 47f
1:00am 16.5ft 15s 18 22 mph 1001.9mb 46f 47f
12:00am 17.5ft 14s 20 27 mph 1001.7mb 46f 47f
Thu 02/11 11:00pm 18.5ft 15s 22 27 mph 1001.1mb 46f 47f
10:00pm 18ft 15s 20 25 mph 1000.6mb 46f 47f
9:00pm 18.5ft 11s 20 25 mph 1000.2mb 46f 47f
8:00pm 16.5ft 10s 18 22 mph 999.5mb 46f 47f
7:00pm 17.5ft 16s 20 27 mph 999mb 46f 47f
6:00pm 17.5ft 10s 22 27 mph 998.4mb 46f 47f
5:00pm 17.5ft 9s 22 27 mph 997.5mb 46f 47f
4:00pm 19ft 10s 22 27 mph 997mb 46f 48f
3:00pm 19ft 10s 22 29 mph 997.1mb 46f 48f
2:00pm 18.5ft 10s 25 29 mph 997mb 46f 48f
1:00pm 20.5ft 10s 27 34 mph 997.1mb 46f 48f
12:00pm 20ft 9s 29 36 mph 997.6mb 46f 47f
11:00am 20.5ft 15s 36 45 mph 997.3mb 46f 47f
10:00am 20.5ft 17s 38 51 mph 998.4mb 46f 47f
9:00am 18.5ft 18s 38 47 mph 998.7mb 46f 48f
8:00am 19.5ft 16s 31 40 mph 999.7mb 46f 48f
7:00am 19.5ft 17s 34 43 mph 1000mb 46f 49f
6:00am 19.5ft 18s 31 38 mph 1001.4mb 46f 48f
5:00am 18.5ft 20s 29 36 mph 1002.7mb 46f 47f
4:00am 17.5ft 17s 25 29 mph 1005mb 46f 48f
3:00am 18.5ft 17s 22 29 mph 1006.2mb 46f 48f
2:00am 18.5ft 20s 18 22 mph 1006.8mb 46f 48f
1:00am 18.5ft 18s 18 22 mph 1007.8mb 46f 47f
12:00am 18.5ft 20s 16 20 mph 1008.4mb 46f 47f
Wed 02/10 11:00pm 19ft 13s 16 20 mph 1008.3mb 46f 47f
10:00pm 19.5ft 18s 18 22 mph 1007.8mb 46f 47f
9:00pm 20.5ft 12s 22 27 mph 1007.2mb 46f 48f
8:00pm 20.5ft 12s 27 31 mph 1005.8mb 46f 48f
7:00pm 20.5ft 12s 31 38 mph 1004.5mb 46f 49f
6:00pm 20ft 11s 34 47 mph 1003mb 46f 49f
5:00pm 18.5ft 20s 34 40 mph 1002.4mb 46f 48f
4:00pm 18.5ft 11s 31 38 mph 1002.1mb 46f 48f
3:00pm 17.5ft 8s 27 34 mph 1001.4mb 46f 48f
2:00pm 17ft 9s 29 38 mph 1000.5mb 46f 48f
1:00pm 15.5ft 8s 31 40 mph 999.1mb 46f 48f
12:00pm 15ft 8s 34 43 mph 998.2mb 46f 48f
11:00am 15ft 21s 34 47 mph 997.2mb 46f 48f
10:00am 13ft 8s 29 36 mph 996.2mb 46f 48f
9:00am 13.5ft 11s 27 34 mph 995.8mb 46f 48f
8:00am 14ft 12s 27 31 mph 995.3mb 46f 48f
7:00am 13.5ft 7s 31 40 mph 994.5mb 46f 48f
6:00am 14.5ft 12s 29 36 mph 995.2mb 46f 48f
5:00am 14ft 12s 27 31 mph 996.2mb 46f 48f
4:00am 13.5ft 12s 27 34 mph 997.2mb 46f 48f
3:00am 12ft 14s 27 31 mph 998.1mb 46f 48f
2:00am 10.5ft 14s 25 29 mph 999.1mb 46f 48f
1:00am 10.5ft 15s 22 27 mph 1000.4mb 46f 48f
12:00am 10ft 11s 18 22 mph 1001.3mb 46f 47f
Tue 02/09 11:00pm 9ft 10s 18 22 mph 1002mb 46f 47f
10:00pm 9ft 10s 16 20 mph 1001.7mb 46f 47f
9:00pm 9ft 11s 18 20 mph 1001.7mb 46f 47f
8:00pm 8.5ft 11s 16 18 mph 1001.3mb 46f 47f
7:00pm 8.5ft 11s 16 18 mph 1000.9mb 46f 47f
6:00pm 9ft 12s 18 22 mph 1000.3mb 46f 48f
5:00pm 9.5ft 8s 18 22 mph 999.8mb 46f 48f
4:00pm 9ft 7s 18 22 mph 999.9mb 46f 47f
3:00pm 9ft 7s 20 25 mph 999.9mb 46f 48f
2:00pm 9ft 7s 20 25 mph 1000.2mb 46f 47f
1:00pm 9ft 11s 20 25 mph 1000.3mb 46f 47f
12:00pm 9.5ft 7s 22 29 mph 1000.8mb 46f 48f
11:00am 10ft 6s 20 25 mph 1000.6mb 46f 48f
10:00am 10.5ft 6s 22 27 mph 1001mb 46f 48f
9:00am 10.5ft 11s 25 29 mph 1001.9mb 46f 47f
8:00am 11ft 11s 27 34 mph 1003.7mb 46f 47f
7:00am 10ft 12s 27 34 mph 1005.3mb 46f 46f
6:00am 11ft 12s 27 34 mph 1007.6mb 46f 46f
5:00am 11ft 12s 27 31 mph 1008.8mb 46f 45f
4:00am 11ft 11s 22 29 mph 1010.9mb 46f 46f
3:00am 12.5ft 12s 20 25 mph 1012.4mb 46f 46f
2:00am 12ft 12s 16 20 mph 1013.9mb 46f 46f
1:00am 12ft 12s 13 20 mph 1015mb 46f 47f
12:00am 13ft 12s 13 18 mph 1016.3mb 46f 47f
Mon 02/08 11:00pm 13ft 11s 18 22 mph 1017mb 46f 47f
10:00pm 13.5ft 12s 11 13 mph 1017.6mb 46f 47f
9:00pm 14ft 13s 9 13 mph 1018.4mb 46f 47f
8:00pm 13.5ft 10s 9 11 mph 1018.4mb 46f 47f
7:00pm 14ft 11s 9 11 mph 1018.7mb 46f 47f
6:00pm 15ft 11s 9 11 mph 1018.3mb 46f 47f
5:00pm 15ft 11s 11 13 mph 1018.3mb 46f 47f